Terminal Aerodrome Forecast
Issued by NWS Topeka, KS

Home | Current Version | Previous Version | Graphics & Text | Print | Product List | Glossary On
Versions: 1 2 3 4 5 6 7 8 9 10 11 12 13 14 15 16 17 18 19 20 21 22 23 24 25 26 27
000
FTUS43 KTOP 150400 AAB
TAFTOP
TAF AMD
KTOP 150443Z 1505/1524 14009KT P6SM BKN060
     FM151000 01010KT P6SM VCSH SCT015 OVC035
     FM151700 27014G22KT P6SM OVC015=

USA.gov is the U.S. government's official web portal to all federal, state and local government web resources and services.